sensor_id;sensor_type;location;lat;lon;timestamp;temperature;humidity
38902;DHT22;24661;53.566;9.910;2022-07-03T00:01:25;18.80;99.90
38902;DHT22;24661;53.566;9.910;2022-07-03T00:03:51;19.00;99.90
38902;DHT22;24661;53.566;9.910;2022-07-03T00:06:17;19.00;99.90
38902;DHT22;24661;53.566;9.910;2022-07-03T00:08:43;19.00;99.90
38902;DHT22;24661;53.566;9.910;2022-07-03T00:11:09;19.10;99.90
38902;DHT22;24661;53.566;9.910;2022-07-03T00:13:35;19.20;99.90
38902;DHT22;24661;53.566;9.910;2022-07-03T00:16:01;19.20;99.90
38902;DHT22;24661;53.566;9.910;2022-07-03T00:18:27;19.30;99.90
38902;DHT22;24661;53.566;9.910;2022-07-03T00:21:02;19.30;99.90
38902;DHT22;24661;53.566;9.910;2022-07-03T00:23:40;19.50;99.90
38902;DHT22;24661;53.566;9.910;2022-07-03T00:26:08;19.50;99.90
38902;DHT22;24661;53.566;9.910;2022-07-03T00:28:35;19.40;99.90
38902;DHT22;24661;53.566;9.910;2022-07-03T00:31:01;19.60;99.90
38902;DHT22;24661;53.566;9.910;2022-07-03T00:33:27;19.50;99.90
38902;DHT22;24661;53.566;9.910;2022-07-03T00:35:55;19.50;99.90
38902;DHT22;24661;53.566;9.910;2022-07-03T00:38:22;19.50;99.90
38902;DHT22;24661;53.566;9.910;2022-07-03T00:40:48;19.50;99.90
38902;DHT22;24661;53.566;9.910;2022-07-03T00:43:16;19.60;99.90
38902;DHT22;24661;53.566;9.910;2022-07-03T00:45:46;19.60;99.90
38902;DHT22;24661;53.566;9.910;2022-07-03T00:48:14;19.60;99.90
38902;DHT22;24661;53.566;9.910;2022-07-03T00:50:45;19.60;99.90
38902;DHT22;24661;53.566;9.910;2022-07-03T00:53:13;19.60;99.90
38902;DHT22;24661;53.566;9.910;2022-07-03T00:55:39;17.10;99.90
38902;DHT22;24661;53.566;9.910;2022-07-03T00:58:07;19.60;99.90
38902;DHT22;24661;53.566;9.910;2022-07-03T01:00:35;19.60;99.90
38902;DHT22;24661;53.566;9.910;2022-07-03T01:03:06;19.50;99.90
38902;DHT22;24661;53.566;9.910;2022-07-03T01:05:37;19.40;99.90
38902;DHT22;24661;53.566;9.910;2022-07-03T01:22:28;19.10;99.90
38902;DHT22;24661;53.566;9.910;2022-07-03T01:25:21;19.00;99.90
38902;DHT22;24661;53.566;9.910;2022-07-03T01:30:38;19.00;99.90
38902;DHT22;24661;53.566;9.910;2022-07-03T01:33:17;19.00;99.90
38902;DHT22;24661;53.566;9.910;2022-07-03T01:36:10;18.90;99.90
38902;DHT22;24661;53.566;9.910;2022-07-03T01:38:40;18.90;99.90
38902;DHT22;24661;53.566;9.910;2022-07-03T01:41:09;18.90;99.90
38902;DHT22;24661;53.566;9.910;2022-07-03T01:43:47;18.90;99.90
38902;DHT22;24661;53.566;9.910;2022-07-03T01:46:13;18.80;99.90
38902;DHT22;24661;53.566;9.910;2022-07-03T01:48:42;18.80;99.90
38902;DHT22;24661;53.566;9.910;2022-07-03T01:51:09;18.80;99.90
38902;DHT22;24661;53.566;9.910;2022-07-03T01:53:43;18.80;99.90
38902;DHT22;24661;53.566;9.910;2022-07-03T01:56:10;18.70;99.90
38902;DHT22;24661;53.566;9.910;2022-07-03T01:58:36;18.80;99.90
38902;DHT22;24661;53.566;9.910;2022-07-03T02:01:25;18.70;99.90
38902;DHT22;24661;53.566;9.910;2022-07-03T02:04:23;18.70;99.90
38902;DHT22;24661;53.566;9.910;2022-07-03T02:07:02;18.70;99.90
38902;DHT22;24661;53.566;9.910;2022-07-03T02:09:49;18.70;99.90
38902;DHT22;24661;53.566;9.910;2022-07-03T02:12:18;18.70;99.90
38902;DHT22;24661;53.566;9.910;2022-07-03T02:15:05;18.60;99.90
38902;DHT22;24661;53.566;9.910;2022-07-03T02:17:42;18.60;99.90
38902;DHT22;24661;53.566;9.910;2022-07-03T02:20:09;18.60;99.90
38902;DHT22;24661;53.566;9.910;2022-07-03T02:22:47;18.50;99.90
38902;DHT22;24661;53.566;9.910;2022-07-03T02:25:22;18.50;99.90
38902;DHT22;24661;53.566;9.910;2022-07-03T02:27:57;18.40;99.90
38902;DHT22;24661;53.566;9.910;2022-07-03T02:30:23;18.40;99.90
38902;DHT22;24661;53.566;9.910;2022-07-03T02:32:51;18.40;99.90
38902;DHT22;24661;53.566;9.910;2022-07-03T02:35:31;18.40;99.90
38902;DHT22;24661;53.566;9.910;2022-07-03T02:38:18;18.30;99.90
38902;DHT22;24661;53.566;9.910;2022-07-03T02:46:05;18.30;99.90
38902;DHT22;24661;53.566;9.910;2022-07-03T02:48:51;18.20;99.90
38902;DHT22;24661;53.566;9.910;2022-07-03T02:51:22;18.20;99.90
38902;DHT22;24661;53.566;9.910;2022-07-03T02:53:58;18.20;99.90
38902;DHT22;24661;53.566;9.910;2022-07-03T03:05:02;18.00;99.90
38902;DHT22;24661;53.566;9.910;2022-07-03T03:07:43;18.10;99.90
38902;DHT22;24661;53.566;9.910;2022-07-03T03:10:18;18.10;99.90
38902;DHT22;24661;53.566;9.910;2022-07-03T03:12:47;18.00;99.90
38902;DHT22;24661;53.566;9.910;2022-07-03T03:15:13;18.00;99.90
38902;DHT22;24661;53.566;9.910;2022-07-03T03:17:44;18.00;99.90
38902;DHT22;24661;53.566;9.910;2022-07-03T03:20:15;18.00;99.90
38902;DHT22;24661;53.566;9.910;2022-07-03T03:22:59;18.00;99.90
38902;DHT22;24661;53.566;9.910;2022-07-03T03:25:32;18.00;99.90
38902;DHT22;24661;53.566;9.910;2022-07-03T03:28:01;18.00;99.90
38902;DHT22;24661;53.566;9.910;2022-07-03T03:30:27;18.00;99.90
38902;DHT22;24661;53.566;9.910;2022-07-03T03:32:52;18.00;99.90
38902;DHT22;24661;53.566;9.910;2022-07-03T03:35:18;18.00;99.90
38902;DHT22;24661;53.566;9.910;2022-07-03T03:37:45;18.10;99.90
38902;DHT22;24661;53.566;9.910;2022-07-03T03:40:15;18.00;99.90
38902;DHT22;24661;53.566;9.910;2022-07-03T03:42:41;17.90;99.90
38902;DHT22;24661;53.566;9.910;2022-07-03T03:45:07;17.90;99.90
38902;DHT22;24661;53.566;9.910;2022-07-03T03:47:33;17.90;99.90
38902;DHT22;24661;53.566;9.910;2022-07-03T03:49:59;17.80;99.90
38902;DHT22;24661;53.566;9.910;2022-07-03T03:52:25;17.80;99.90
38902;DHT22;24661;53.566;9.910;2022-07-03T03:54:51;17.80;99.90
38902;DHT22;24661;53.566;9.910;2022-07-03T03:57:21;17.80;99.90
38902;DHT22;24661;53.566;9.910;2022-07-03T03:59:48;17.80;99.90
38902;DHT22;24661;53.566;9.910;2022-07-03T04:02:14;17.80;99.90
38902;DHT22;24661;53.566;9.910;2022-07-03T04:04:40;17.80;99.90
38902;DHT22;24661;53.566;9.910;2022-07-03T04:07:05;17.80;99.90
38902;DHT22;24661;53.566;9.910;2022-07-03T04:09:31;17.70;99.90
38902;DHT22;24661;53.566;9.910;2022-07-03T04:11:57;17.80;99.90
38902;DHT22;24661;53.566;9.910;2022-07-03T04:14:23;17.80;99.90
38902;DHT22;24661;53.566;9.910;2022-07-03T04:16:50;17.90;99.90
38902;DHT22;24661;53.566;9.910;2022-07-03T04:19:16;17.90;99.90
38902;DHT22;24661;53.566;9.910;2022-07-03T04:21:41;17.90;99.90
38902;DHT22;24661;53.566;9.910;2022-07-03T04:24:07;18.00;99.90
38902;DHT22;24661;53.566;9.910;2022-07-03T04:26:33;18.00;99.90
38902;DHT22;24661;53.566;9.910;2022-07-03T04:28:59;18.10;99.90
38902;DHT22;24661;53.566;9.910;2022-07-03T04:31:24;18.00;99.90
38902;DHT22;24661;53.566;9.910;2022-07-03T04:33:50;18.00;99.90
38902;DHT22;24661;53.566;9.910;2022-07-03T04:36:16;18.20;99.90
38902;DHT22;24661;53.566;9.910;2022-07-03T04:38:42;18.20;99.90
38902;DHT22;24661;53.566;9.910;2022-07-03T04:41:08;18.10;99.90
38902;DHT22;24661;53.566;9.910;2022-07-03T04:43:34;18.20;99.90
38902;DHT22;24661;53.566;9.910;2022-07-03T04:45:59;18.20;99.90
38902;DHT22;24661;53.566;9.910;2022-07-03T04:48:27;18.30;99.90
38902;DHT22;24661;53.566;9.910;2022-07-03T04:50:53;18.30;99.90
38902;DHT22;24661;53.566;9.910;2022-07-03T04:53:18;18.30;99.90
38902;DHT22;24661;53.566;9.910;2022-07-03T04:55:45;18.30;99.90
38902;DHT22;24661;53.566;9.910;2022-07-03T04:58:11;18.30;99.90
38902;DHT22;24661;53.566;9.910;2022-07-03T05:00:36;18.30;99.90
38902;DHT22;24661;53.566;9.910;2022-07-03T05:03:02;18.30;99.90
38902;DHT22;24661;53.566;9.910;2022-07-03T05:05:27;18.40;99.90
38902;DHT22;24661;53.566;9.910;2022-07-03T05:07:53;18.50;99.90
38902;DHT22;24661;53.566;9.910;2022-07-03T05:10:19;18.50;99.90
38902;DHT22;24661;53.566;9.910;2022-07-03T05:12:44;18.50;99.90
38902;DHT22;24661;53.566;9.910;2022-07-03T05:15:10;18.50;99.90
38902;DHT22;24661;53.566;9.910;2022-07-03T05:17:35;18.60;99.90
38902;DHT22;24661;53.566;9.910;2022-07-03T05:20:04;18.50;99.90
38902;DHT22;24661;53.566;9.910;2022-07-03T05:22:53;18.60;99.90
38902;DHT22;24661;53.566;9.910;2022-07-03T05:25:20;18.70;99.90
38902;DHT22;24661;53.566;9.910;2022-07-03T05:27:46;18.80;99.90
38902;DHT22;24661;53.566;9.910;2022-07-03T05:30:12;18.90;99.90
38902;DHT22;24661;53.566;9.910;2022-07-03T05:32:38;18.80;99.90
38902;DHT22;24661;53.566;9.910;2022-07-03T05:35:04;19.80;99.90
38902;DHT22;24661;53.566;9.910;2022-07-03T05:37:30;19.00;99.90
38902;DHT22;24661;53.566;9.910;2022-07-03T05:39:55;19.00;99.90
38902;DHT22;24661;53.566;9.910;2022-07-03T05:42:21;19.00;99.90
38902;DHT22;24661;53.566;9.910;2022-07-03T05:44:47;19.10;99.90
38902;DHT22;24661;53.566;9.910;2022-07-03T05:47:12;19.20;99.90
38902;DHT22;24661;53.566;9.910;2022-07-03T05:49:38;19.30;99.90
38902;DHT22;24661;53.566;9.910;2022-07-03T05:52:04;19.40;99.90
38902;DHT22;24661;53.566;9.910;2022-07-03T05:54:30;19.50;99.90
38902;DHT22;24661;53.566;9.910;2022-07-03T05:56:56;19.70;99.90
38902;DHT22;24661;53.566;9.910;2022-07-03T05:59:21;19.90;99.90
38902;DHT22;24661;53.566;9.910;2022-07-03T06:01:47;20.10;99.90
38902;DHT22;24661;53.566;9.910;2022-07-03T06:04:12;20.30;99.90
38902;DHT22;24661;53.566;9.910;2022-07-03T06:06:38;20.60;99.90
38902;DHT22;24661;53.566;9.910;2022-07-03T06:09:03;20.60;99.90
38902;DHT22;24661;53.566;9.910;2022-07-03T06:11:29;20.90;99.90
38902;DHT22;24661;53.566;9.910;2022-07-03T06:13:55;21.00;99.90
38902;DHT22;24661;53.566;9.910;2022-07-03T06:16:20;21.20;99.90
38902;DHT22;24661;53.566;9.910;2022-07-03T06:18:46;21.40;99.90
38902;DHT22;24661;53.566;9.910;2022-07-03T06:21:11;21.50;99.90
38902;DHT22;24661;53.566;9.910;2022-07-03T06:23:37;21.60;99.90
38902;DHT22;24661;53.566;9.910;2022-07-03T06:26:03;21.60;99.90
38902;DHT22;24661;53.566;9.910;2022-07-03T06:28:28;21.60;99.90
38902;DHT22;24661;53.566;9.910;2022-07-03T06:30:54;21.60;99.90
38902;DHT22;24661;53.566;9.910;2022-07-03T06:33:19;21.60;99.90
38902;DHT22;24661;53.566;9.910;2022-07-03T06:35:45;21.60;99.90
38902;DHT22;24661;53.566;9.910;2022-07-03T06:38:11;21.70;99.90
38902;DHT22;24661;53.566;9.910;2022-07-03T06:40:36;21.70;99.90
38902;DHT22;24661;53.566;9.910;2022-07-03T06:43:02;21.80;99.90
38902;DHT22;24661;53.566;9.910;2022-07-03T06:45:27;21.80;99.90
38902;DHT22;24661;53.566;9.910;2022-07-03T06:47:53;21.80;99.90
38902;DHT22;24661;53.566;9.910;2022-07-03T06:50:18;21.70;99.90
38902;DHT22;24661;53.566;9.910;2022-07-03T06:52:44;21.70;99.90
38902;DHT22;24661;53.566;9.910;2022-07-03T06:55:10;21.80;99.90
38902;DHT22;24661;53.566;9.910;2022-07-03T06:57:35;21.80;99.90
38902;DHT22;24661;53.566;9.910;2022-07-03T07:00:01;21.90;99.90
38902;DHT22;24661;53.566;9.910;2022-07-03T07:02:27;21.90;99.90
38902;DHT22;24661;53.566;9.910;2022-07-03T07:04:52;21.90;99.90
38902;DHT22;24661;53.566;9.910;2022-07-03T07:07:18;22.00;99.90
38902;DHT22;24661;53.566;9.910;2022-07-03T07:09:43;22.00;99.90
38902;DHT22;24661;53.566;9.910;2022-07-03T07:12:09;21.90;99.90
38902;DHT22;24661;53.566;9.910;2022-07-03T07:14:35;22.00;99.90
38902;DHT22;24661;53.566;9.910;2022-07-03T07:17:01;22.00;99.90
38902;DHT22;24661;53.566;9.910;2022-07-03T07:19:26;22.00;99.90
38902;DHT22;24661;53.566;9.910;2022-07-03T07:21:52;22.20;99.90
38902;DHT22;24661;53.566;9.910;2022-07-03T07:24:17;22.30;99.90
38902;DHT22;24661;53.566;9.910;2022-07-03T07:26:43;22.40;99.90
38902;DHT22;24661;53.566;9.910;2022-07-03T07:29:09;22.40;99.90
38902;DHT22;24661;53.566;9.910;2022-07-03T07:31:34;22.40;99.90
38902;DHT22;24661;53.566;9.910;2022-07-03T07:34:00;22.40;99.90
38902;DHT22;24661;53.566;9.910;2022-07-03T07:36:29;22.50;99.90
38902;DHT22;24661;53.566;9.910;2022-07-03T07:38:55;22.40;99.90
38902;DHT22;24661;53.566;9.910;2022-07-03T07:41:21;22.40;99.90
38902;DHT22;24661;53.566;9.910;2022-07-03T07:43:46;22.50;99.90
38902;DHT22;24661;53.566;9.910;2022-07-03T07:46:12;22.60;99.90
38902;DHT22;24661;53.566;9.910;2022-07-03T07:48:37;22.60;99.90
38902;DHT22;24661;53.566;9.910;2022-07-03T07:51:04;22.50;99.90
38902;DHT22;24661;53.566;9.910;2022-07-03T07:53:30;22.70;99.90
38902;DHT22;24661;53.566;9.910;2022-07-03T07:55:55;22.90;99.90
38902;DHT22;24661;53.566;9.910;2022-07-03T07:58:21;23.00;99.90
38902;DHT22;24661;53.566;9.910;2022-07-03T08:00:48;23.10;99.90
38902;DHT22;24661;53.566;9.910;2022-07-03T08:03:32;23.30;99.90
38902;DHT22;24661;53.566;9.910;2022-07-03T08:06:17;23.50;99.90
38902;DHT22;24661;53.566;9.910;2022-07-03T08:08:43;23.70;99.90
38902;DHT22;24661;53.566;9.910;2022-07-03T08:11:08;23.90;99.90
38902;DHT22;24661;53.566;9.910;2022-07-03T08:13:34;23.70;99.90
38902;DHT22;24661;53.566;9.910;2022-07-03T08:16:00;23.70;99.90
38902;DHT22;24661;53.566;9.910;2022-07-03T08:18:25;23.80;99.90
38902;DHT22;24661;53.566;9.910;2022-07-03T08:20:51;23.90;99.90
38902;DHT22;24661;53.566;9.910;2022-07-03T08:23:16;23.90;99.90
38902;DHT22;24661;53.566;9.910;2022-07-03T08:25:42;23.90;99.90
38902;DHT22;24661;53.566;9.910;2022-07-03T08:28:08;23.90;99.90
38902;DHT22;24661;53.566;9.910;2022-07-03T08:30:33;24.00;99.90
38902;DHT22;24661;53.566;9.910;2022-07-03T08:32:59;24.10;99.90
38902;DHT22;24661;53.566;9.910;2022-07-03T08:35:26;24.20;99.90
38902;DHT22;24661;53.566;9.910;2022-07-03T08:37:52;24.30;99.90
38902;DHT22;24661;53.566;9.910;2022-07-03T08:40:19;24.30;99.90
38902;DHT22;24661;53.566;9.910;2022-07-03T08:42:47;24.50;99.90
38902;DHT22;24661;53.566;9.910;2022-07-03T08:45:18;24.70;99.90
38902;DHT22;24661;53.566;9.910;2022-07-03T08:47:46;24.90;99.90
38902;DHT22;24661;53.566;9.910;2022-07-03T08:50:12;25.00;99.90
38902;DHT22;24661;53.566;9.910;2022-07-03T08:52:39;25.00;99.90
38902;DHT22;24661;53.566;9.910;2022-07-03T08:55:06;24.90;99.90
38902;DHT22;24661;53.566;9.910;2022-07-03T08:57:32;24.70;99.90
38902;DHT22;24661;53.566;9.910;2022-07-03T09:00:02;24.60;99.90
38902;DHT22;24661;53.566;9.910;2022-07-03T09:02:30;24.70;99.90
38902;DHT22;24661;53.566;9.910;2022-07-03T09:04:58;24.60;99.90
38902;DHT22;24661;53.566;9.910;2022-07-03T09:07:25;24.40;99.90
38902;DHT22;24661;53.566;9.910;2022-07-03T09:09:51;24.30;99.90
38902;DHT22;24661;53.566;9.910;2022-07-03T09:12:17;24.20;99.90
38902;DHT22;24661;53.566;9.910;2022-07-03T09:14:43;24.10;99.90
38902;DHT22;24661;53.566;9.910;2022-07-03T09:17:09;23.90;99.90
38902;DHT22;24661;53.566;9.910;2022-07-03T09:19:42;23.90;99.90
38902;DHT22;24661;53.566;9.910;2022-07-03T09:25:02;23.90;99.90
38902;DHT22;24661;53.566;9.910;2022-07-03T09:27:28;23.90;99.90
38902;DHT22;24661;53.566;9.910;2022-07-03T09:32:42;23.90;99.90
38902;DHT22;24661;53.566;9.910;2022-07-03T09:35:20;23.90;99.90
38902;DHT22;24661;53.566;9.910;2022-07-03T09:37:58;23.90;99.90
38902;DHT22;24661;53.566;9.910;2022-07-03T09:43:13;23.70;99.90
38902;DHT22;24661;53.566;9.910;2022-07-03T09:46:08;23.80;99.90
38902;DHT22;24661;53.566;9.910;2022-07-03T09:48:38;23.70;99.90
38902;DHT22;24661;53.566;9.910;2022-07-03T09:51:13;23.80;99.90
38902;DHT22;24661;53.566;9.910;2022-07-03T09:54:11;23.80;99.90
38902;DHT22;24661;53.566;9.910;2022-07-03T09:56:37;23.90;99.90
38902;DHT22;24661;53.566;9.910;2022-07-03T10:01:32;24.10;99.90
38902;DHT22;24661;53.566;9.910;2022-07-03T10:07:00;24.20;99.90
38902;DHT22;24661;53.566;9.910;2022-07-03T10:09:33;24.30;99.90
38902;DHT22;24661;53.566;9.910;2022-07-03T10:12:00;24.30;99.90
38902;DHT22;24661;53.566;9.910;2022-07-03T10:14:31;24.40;99.90
38902;DHT22;24661;53.566;9.910;2022-07-03T10:16:57;24.60;99.90
38902;DHT22;24661;53.566;9.910;2022-07-03T10:19:26;24.60;99.90
38902;DHT22;24661;53.566;9.910;2022-07-03T10:21:57;24.60;99.90
38902;DHT22;24661;53.566;9.910;2022-07-03T10:24:26;26.10;99.90
38902;DHT22;24661;53.566;9.910;2022-07-03T10:26:53;24.90;99.90
38902;DHT22;24661;53.566;9.910;2022-07-03T10:29:25;25.00;99.90
38902;DHT22;24661;53.566;9.910;2022-07-03T10:31:51;25.10;99.90
38902;DHT22;24661;53.566;9.910;2022-07-03T10:34:22;25.10;99.90
38902;DHT22;24661;53.566;9.910;2022-07-03T10:36:52;25.10;99.90
38902;DHT22;24661;53.566;9.910;2022-07-03T10:42:15;25.40;99.90
38902;DHT22;24661;53.566;9.910;2022-07-03T10:45:06;25.40;99.90
38902;DHT22;24661;53.566;9.910;2022-07-03T10:50:04;25.40;99.90
38902;DHT22;24661;53.566;9.910;2022-07-03T10:52:32;25.60;99.90
38902;DHT22;24661;53.566;9.910;2022-07-03T10:54:57;25.70;99.90
38902;DHT22;24661;53.566;9.910;2022-07-03T10:57:23;25.70;99.90
38902;DHT22;24661;53.566;9.910;2022-07-03T11:02:22;25.80;99.90
38902;DHT22;24661;53.566;9.910;2022-07-03T11:15:54;25.90;99.90
38902;DHT22;24661;53.566;9.910;2022-07-03T11:25:51;26.10;99.90
38902;DHT22;24661;53.566;9.910;2022-07-03T11:36:29;26.70;99.90
38902;DHT22;24661;53.566;9.910;2022-07-03T11:41:22;27.10;99.90
38902;DHT22;24661;53.566;9.910;2022-07-03T11:43:49;27.30;99.90
38902;DHT22;24661;53.566;9.910;2022-07-03T11:46:19;27.30;99.90
38902;DHT22;24661;53.566;9.910;2022-07-03T11:48:45;27.50;99.90
38902;DHT22;24661;53.566;9.910;2022-07-03T11:51:11;27.50;99.90
38902;DHT22;24661;53.566;9.910;2022-07-03T11:53:38;26.10;99.90
38902;DHT22;24661;53.566;9.910;2022-07-03T11:58:47;27.20;99.90
38902;DHT22;24661;53.566;9.910;2022-07-03T12:03:48;27.10;99.90
38902;DHT22;24661;53.566;9.910;2022-07-03T12:06:14;27.10;99.90
38902;DHT22;24661;53.566;9.910;2022-07-03T12:08:40;27.40;99.90
38902;DHT22;24661;53.566;9.910;2022-07-03T12:11:11;27.50;99.90
38902;DHT22;24661;53.566;9.910;2022-07-03T12:13:37;27.40;99.90
38902;DHT22;24661;53.566;9.910;2022-07-03T12:18:52;27.50;99.90
38902;DHT22;24661;53.566;9.910;2022-07-03T12:21:21;27.50;99.90
38902;DHT22;24661;53.566;9.910;2022-07-03T12:23:53;27.40;99.90
38902;DHT22;24661;53.566;9.910;2022-07-03T12:26:33;27.20;99.90
38902;DHT22;24661;53.566;9.910;2022-07-03T12:29:06;27.10;99.90
38902;DHT22;24661;53.566;9.910;2022-07-03T12:31:32;27.10;99.90
38902;DHT22;24661;53.566;9.910;2022-07-03T12:33:59;27.10;99.90
38902;DHT22;24661;53.566;9.910;2022-07-03T12:36:25;27.30;99.90
38902;DHT22;24661;53.566;9.910;2022-07-03T12:38:55;27.40;99.90
38902;DHT22;24661;53.566;9.910;2022-07-03T12:41:22;27.50;99.90
38902;DHT22;24661;53.566;9.910;2022-07-03T12:43:49;27.60;99.90
38902;DHT22;24661;53.566;9.910;2022-07-03T12:46:35;27.70;99.90
38902;DHT22;24661;53.566;9.910;2022-07-03T12:49:09;27.70;99.90
38902;DHT22;24661;53.566;9.910;2022-07-03T12:51:53;27.90;99.90
38902;DHT22;24661;53.566;9.910;2022-07-03T12:54:28;28.00;99.90
38902;DHT22;24661;53.566;9.910;2022-07-03T12:57:07;28.10;99.90
38902;DHT22;24661;53.566;9.910;2022-07-03T13:02:32;27.90;99.90
38902;DHT22;24661;53.566;9.910;2022-07-03T13:04:59;28.10;99.90
38902;DHT22;24661;53.566;9.910;2022-07-03T13:07:29;28.10;99.90
38902;DHT22;24661;53.566;9.910;2022-07-03T13:09:59;28.30;99.90
38902;DHT22;24661;53.566;9.910;2022-07-03T13:12:25;28.40;99.90
38902;DHT22;24661;53.566;9.910;2022-07-03T13:15:01;28.20;99.90
38902;DHT22;24661;53.566;9.910;2022-07-03T13:20:21;28.30;99.90
38902;DHT22;24661;53.566;9.910;2022-07-03T13:22:47;28.30;99.90
38902;DHT22;24661;53.566;9.910;2022-07-03T13:25:13;28.20;99.90
38902;DHT22;24661;53.566;9.910;2022-07-03T13:27:39;28.00;99.40
38902;DHT22;24661;53.566;9.910;2022-07-03T13:30:06;27.90;99.80
38902;DHT22;24661;53.566;9.910;2022-07-03T13:32:31;27.70;99.90
38902;DHT22;24661;53.566;9.910;2022-07-03T13:34:57;27.70;99.90
38902;DHT22;24661;53.566;9.910;2022-07-03T13:37:23;27.50;99.90
38902;DHT22;24661;53.566;9.910;2022-07-03T13:39:48;27.70;99.90
38902;DHT22;24661;53.566;9.910;2022-07-03T13:42:14;27.30;99.90
38902;DHT22;24661;53.566;9.910;2022-07-03T13:44:40;27.40;99.90
38902;DHT22;24661;53.566;9.910;2022-07-03T13:47:05;27.40;99.90
38902;DHT22;24661;53.566;9.910;2022-07-03T13:49:32;27.50;99.90
38902;DHT22;24661;53.566;9.910;2022-07-03T13:51:58;27.40;99.90
38902;DHT22;24661;53.566;9.910;2022-07-03T13:54:23;27.40;99.90
38902;DHT22;24661;53.566;9.910;2022-07-03T13:56:50;27.40;99.90
38902;DHT22;24661;53.566;9.910;2022-07-03T13:59:16;27.30;99.90
38902;DHT22;24661;53.566;9.910;2022-07-03T14:01:42;27.20;99.90
38902;DHT22;24661;53.566;9.910;2022-07-03T14:04:08;27.00;99.90
38902;DHT22;24661;53.566;9.910;2022-07-03T14:06:34;27.00;99.90
38902;DHT22;24661;53.566;9.910;2022-07-03T14:09:00;27.10;99.90
38902;DHT22;24661;53.566;9.910;2022-07-03T14:11:26;27.10;99.90
38902;DHT22;24661;53.566;9.910;2022-07-03T14:13:52;27.00;99.90
38902;DHT22;24661;53.566;9.910;2022-07-03T14:16:18;27.10;99.90
38902;DHT22;24661;53.566;9.910;2022-07-03T14:18:43;27.10;99.50
38902;DHT22;24661;53.566;9.910;2022-07-03T14:21:09;27.10;99.80
38902;DHT22;24661;53.566;9.910;2022-07-03T14:23:35;27.10;99.70
38902;DHT22;24661;53.566;9.910;2022-07-03T14:26:00;27.00;99.80
38902;DHT22;24661;53.566;9.910;2022-07-03T14:28:26;27.10;99.90
38902;DHT22;24661;53.566;9.910;2022-07-03T14:31:10;27.10;99.50
38902;DHT22;24661;53.566;9.910;2022-07-03T14:33:52;27.10;99.70
38902;DHT22;24661;53.566;9.910;2022-07-03T14:36:18;27.00;99.60
38902;DHT22;24661;53.566;9.910;2022-07-03T14:38:44;27.00;99.60
38902;DHT22;24661;53.566;9.910;2022-07-03T14:41:10;27.00;99.30
38902;DHT22;24661;53.566;9.910;2022-07-03T14:43:35;26.90;99.30
38902;DHT22;24661;53.566;9.910;2022-07-03T14:46:01;26.80;99.40
38902;DHT22;24661;53.566;9.910;2022-07-03T14:48:26;26.70;99.80
38902;DHT22;24661;53.566;9.910;2022-07-03T14:50:52;26.90;99.90
38902;DHT22;24661;53.566;9.910;2022-07-03T14:53:21;26.90;99.30
38902;DHT22;24661;53.566;9.910;2022-07-03T14:55:49;26.90;98.70
38902;DHT22;24661;53.566;9.910;2022-07-03T14:58:16;26.90;99.00
38902;DHT22;24661;53.566;9.910;2022-07-03T15:00:46;26.90;99.00
38902;DHT22;24661;53.566;9.910;2022-07-03T15:03:30;27.00;99.10
38902;DHT22;24661;53.566;9.910;2022-07-03T15:05:58;27.00;99.30
38902;DHT22;24661;53.566;9.910;2022-07-03T15:11:06;27.00;99.30
38902;DHT22;24661;53.566;9.910;2022-07-03T15:13:34;26.90;99.10
38902;DHT22;24661;53.566;9.910;2022-07-03T15:16:00;26.90;99.20
38902;DHT22;24661;53.566;9.910;2022-07-03T15:18:28;26.70;99.90
38902;DHT22;24661;53.566;9.910;2022-07-03T15:20:54;26.70;99.90
38902;DHT22;24661;53.566;9.910;2022-07-03T15:23:21;26.50;99.90
38902;DHT22;24661;53.566;9.910;2022-07-03T15:25:48;26.50;99.50
38902;DHT22;24661;53.566;9.910;2022-07-03T15:28:15;26.40;99.60
38902;DHT22;24661;53.566;9.910;2022-07-03T15:30:54;26.30;99.70
38902;DHT22;24661;53.566;9.910;2022-07-03T15:33:23;25.80;99.90
38902;DHT22;24661;53.566;9.910;2022-07-03T15:35:51;25.20;99.90
38902;DHT22;24661;53.566;9.910;2022-07-03T15:38:21;24.30;99.90
38902;DHT22;24661;53.566;9.910;2022-07-03T15:40:56;23.70;99.90
38902;DHT22;24661;53.566;9.910;2022-07-03T15:52:00;22.70;99.90
38902;DHT22;24661;53.566;9.910;2022-07-03T15:57:01;22.40;99.90
38902;DHT22;24661;53.566;9.910;2022-07-03T15:59:29;22.30;99.90
38902;DHT22;24661;53.566;9.910;2022-07-03T16:01:59;22.20;99.90
38902;DHT22;24661;53.566;9.910;2022-07-03T16:07:24;22.00;99.90
38902;DHT22;24661;53.566;9.910;2022-07-03T16:09:52;21.90;99.90
38902;DHT22;24661;53.566;9.910;2022-07-03T16:12:17;21.80;99.90
38902;DHT22;24661;53.566;9.910;2022-07-03T16:14:49;21.80;99.90
38902;DHT22;24661;53.566;9.910;2022-07-03T16:17:17;21.70;99.90
38902;DHT22;24661;53.566;9.910;2022-07-03T16:19:45;21.70;99.90
38902;DHT22;24661;53.566;9.910;2022-07-03T16:22:12;21.60;99.90
38902;DHT22;24661;53.566;9.910;2022-07-03T16:24:38;21.40;99.90
38902;DHT22;24661;53.566;9.910;2022-07-03T16:27:05;21.40;99.90
38902;DHT22;24661;53.566;9.910;2022-07-03T16:29:31;21.20;99.90
38902;DHT22;24661;53.566;9.910;2022-07-03T16:32:00;21.20;99.90
38902;DHT22;24661;53.566;9.910;2022-07-03T16:34:37;21.10;99.90
38902;DHT22;24661;53.566;9.910;2022-07-03T16:37:07;21.00;99.90
38902;DHT22;24661;53.566;9.910;2022-07-03T16:39:37;21.10;99.90
38902;DHT22;24661;53.566;9.910;2022-07-03T16:42:05;21.20;99.90
38902;DHT22;24661;53.566;9.910;2022-07-03T16:44:32;21.30;99.90
38902;DHT22;24661;53.566;9.910;2022-07-03T16:47:03;21.40;99.90
38902;DHT22;24661;53.566;9.910;2022-07-03T16:49:33;21.40;99.90
38902;DHT22;24661;53.566;9.910;2022-07-03T16:52:09;21.30;99.90
38902;DHT22;24661;53.566;9.910;2022-07-03T16:54:35;21.20;99.90
38902;DHT22;24661;53.566;9.910;2022-07-03T16:57:06;21.20;99.90
38902;DHT22;24661;53.566;9.910;2022-07-03T16:59:32;20.00;99.90
38902;DHT22;24661;53.566;9.910;2022-07-03T17:01:59;21.20;99.90
38902;DHT22;24661;53.566;9.910;2022-07-03T17:04:26;21.30;99.90
38902;DHT22;24661;53.566;9.910;2022-07-03T17:06:53;21.20;99.90
38902;DHT22;24661;53.566;9.910;2022-07-03T17:09:21;21.20;99.90
38902;DHT22;24661;53.566;9.910;2022-07-03T17:11:47;21.30;99.90
38902;DHT22;24661;53.566;9.910;2022-07-03T17:14:13;21.30;99.90
38902;DHT22;24661;53.566;9.910;2022-07-03T17:16:44;21.30;99.90
38902;DHT22;24661;53.566;9.910;2022-07-03T17:19:21;21.30;99.90
38902;DHT22;24661;53.566;9.910;2022-07-03T17:21:48;21.30;99.90
38902;DHT22;24661;53.566;9.910;2022-07-03T17:24:17;21.30;99.90
38902;DHT22;24661;53.566;9.910;2022-07-03T17:26:46;21.20;99.90
38902;DHT22;24661;53.566;9.910;2022-07-03T17:29:17;21.30;99.90
38902;DHT22;24661;53.566;9.910;2022-07-03T17:31:45;21.30;99.90